Fairbanks/Eielson AFB, Alaska
Current Conditions -  °F | °C
As of 11:58 AM on Thursday 20 Nov 2014 (Local Time) from PAEI Reporting Station
Clear Clear  
Wind Chill:   Ceiling: Unl
Heat Index:   Visibility: 10mi
Dew Point:   Wind: 0mph
Humidity: 83%   Direction: NA
Pressure: 29.52"   Gusts: NA
Location:  64.67°N, 147.1°W
Report Text: PAEI 202058Z AUTO 00000KT 10SM CLR M15/M17 A2952 RMK AO2 SLP011 T11481171 57012 $
Loading
Personal Weather Stations






























Interactive Weather Map New forecast layout! Learn more

10-Day Weather Forecast

Advertisements
Track Severe Weather on mobile